Algerita, Texas
Current Conditions -  °F | °C
As of 6:55 PM on Friday 19 Dec 2014 (Local Time) from KAQO Reporting Station
Overcast Overcast  
Wind Chill: 11°   Ceiling: 1800
Heat Index: 11°   Visibility: 10mi
Dew Point:   Wind: 3mph
Humidity: 76%   Direction: 30°NNE
Pressure: 30.19"   Gusts: NA
Location:  31.0718°N, 98.8001°W
Report Text: KAQO 200055Z AUTO 03003KT 10SM OVC018 11/07 A3019 RMK AO2
Loading
Personal Weather Stations






























Interactive Weather Map New forecast layout! Learn more

10-Day Weather Forecast

Advertisements
Track Severe Weather on mobile